Decoded Metar for KCEU (CLEMSON in SC, USA) (IATA:CEU) | Meteo·Mobile Aviation Weather
aviador You're here:

KCEU Decoded Metar

CLEMSON in SC, USA
Report Time2019-06-26 17:54:00
UTC Time2019-06-26 18:15:54
Flight Rules vfr VFR
WindVRB at 04 kt
Visibility9999 m
Phenomena:N/A
Clouds:N/A
Expected CloudBase > 5,200 ft AGL from Temp-Dew spread
CeilingNone
Temp29°C (ISA +16)
Dew Point16°C (45% RH)
Heat Index29.1°C
QNH1022 hPa
Density Alt2,628 ft
Elevation879 ft
Report Wrong Elevation
Raw Report
KCEU 261754Z AUTO VRB04KT 10SM CLR 29/16 A3019 RMK AO2 SLP213
T02890161 10289 20211 58003=

Extra information for KCEU:More info

Metar Taf Metar & Taf Last 4 Metars F.Rules Stats Wind Profile Meteogram Temp Stats Airport Information Weather charts Add Link Nearby VenuesMetar ALERT Operation Metar Decoded Social comments

AIRNAV info for KCEU